Terminal Aerodrome Forecast
Issued by NWS

Home | Current Version | Previous Version | Text Only | Print | Product List | Glossary On
Versions: 1 2 3 4 5 6 7 8 9 10 11 12 13 14 15 16 17 18 19 20 21 22 23
000
FTUS46 KSGX 232300
TAFCRQ
TAF
KCRQ 232332Z 2400/2424 VRB06KT P6SM SCT015
     FM241900 21008KT P6SM FEW018
     FM242300 VRB06KT P6SM FEW018=

USA.gov is the U.S. government's official web portal to all federal, state and local government web resources and services.